sensor_id;sensor_type;location;lat;lon;timestamp;P1;durP1;ratioP1;P2;durP2;ratioP2
21729;SDS011;11027;51.030;13.812;2023-07-13T00:02:15;3.25;;;1.13;;
21729;SDS011;11027;51.030;13.812;2023-07-13T00:04:41;5.15;;;1.15;;
21729;SDS011;11027;51.030;13.812;2023-07-13T00:07:07;2.72;;;1.25;;
21729;SDS011;11027;51.030;13.812;2023-07-13T00:09:33;3.50;;;1.20;;
21729;SDS011;11027;51.030;13.812;2023-07-13T00:11:58;2.60;;;1.30;;
21729;SDS011;11027;51.030;13.812;2023-07-13T00:14:25;4.30;;;1.13;;
21729;SDS011;11027;51.030;13.812;2023-07-13T00:16:51;2.97;;;1.33;;
21729;SDS011;11027;51.030;13.812;2023-07-13T00:19:16;2.88;;;1.30;;
21729;SDS011;11027;51.030;13.812;2023-07-13T00:21:42;1.10;;;1.00;;
21729;SDS011;11027;51.030;13.812;2023-07-13T00:24:08;1.42;;;1.20;;
21729;SDS011;11027;51.030;13.812;2023-07-13T00:26:37;4.75;;;1.33;;
21729;SDS011;11027;51.030;13.812;2023-07-13T00:29:03;1.50;;;1.20;;
21729;SDS011;11027;51.030;13.812;2023-07-13T00:31:29;1.70;;;1.15;;
21729;SDS011;11027;51.030;13.812;2023-07-13T00:33:55;1.55;;;1.15;;
21729;SDS011;11027;51.030;13.812;2023-07-13T00:36:20;6.28;;;1.50;;
21729;SDS011;11027;51.030;13.812;2023-07-13T00:38:46;5.15;;;1.38;;
21729;SDS011;11027;51.030;13.812;2023-07-13T00:41:12;3.28;;;1.27;;
21729;SDS011;11027;51.030;13.812;2023-07-13T00:43:37;3.65;;;1.23;;
21729;SDS011;11027;51.030;13.812;2023-07-13T00:46:11;4.32;;;1.58;;
21729;SDS011;11027;51.030;13.812;2023-07-13T00:48:41;2.75;;;1.70;;
21729;SDS011;11027;51.030;13.812;2023-07-13T00:51:08;2.35;;;1.50;;
21729;SDS011;11027;51.030;13.812;2023-07-13T00:53:35;2.53;;;1.38;;
21729;SDS011;11027;51.030;13.812;2023-07-13T00:56:00;1.35;;;1.25;;
21729;SDS011;11027;51.030;13.812;2023-07-13T00:58:26;3.88;;;1.35;;
21729;SDS011;11027;51.030;13.812;2023-07-13T01:00:52;2.95;;;1.60;;
21729;SDS011;11027;51.030;13.812;2023-07-13T01:03:18;2.67;;;1.30;;
21729;SDS011;11027;51.030;13.812;2023-07-13T01:05:43;2.10;;;1.38;;
21729;SDS011;11027;51.030;13.812;2023-07-13T01:08:12;2.78;;;1.52;;
21729;SDS011;11027;51.030;13.812;2023-07-13T01:10:37;5.40;;;2.00;;
21729;SDS011;11027;51.030;13.812;2023-07-13T01:13:06;2.92;;;1.80;;
21729;SDS011;11027;51.030;13.812;2023-07-13T01:15:43;5.43;;;1.92;;
21729;SDS011;11027;51.030;13.812;2023-07-13T01:18:11;7.38;;;1.75;;
21729;SDS011;11027;51.030;13.812;2023-07-13T01:20:39;4.63;;;1.73;;
21729;SDS011;11027;51.030;13.812;2023-07-13T01:23:06;3.70;;;1.50;;
21729;SDS011;11027;51.030;13.812;2023-07-13T01:25:34;5.15;;;1.90;;
21729;SDS011;11027;51.030;13.812;2023-07-13T01:28:00;7.15;;;1.83;;
21729;SDS011;11027;51.030;13.812;2023-07-13T01:30:26;5.00;;;1.90;;
21729;SDS011;11027;51.030;13.812;2023-07-13T01:32:51;2.72;;;1.70;;
21729;SDS011;11027;51.030;13.812;2023-07-13T01:35:17;3.47;;;1.83;;
21729;SDS011;11027;51.030;13.812;2023-07-13T01:37:42;3.05;;;1.70;;
21729;SDS011;11027;51.030;13.812;2023-07-13T01:40:10;3.65;;;2.15;;
21729;SDS011;11027;51.030;13.812;2023-07-13T01:42:36;8.85;;;1.80;;
21729;SDS011;11027;51.030;13.812;2023-07-13T01:45:02;4.45;;;1.80;;
21729;SDS011;11027;51.030;13.812;2023-07-13T01:47:27;6.32;;;2.03;;
21729;SDS011;11027;51.030;13.812;2023-07-13T01:49:55;3.97;;;2.05;;
21729;SDS011;11027;51.030;13.812;2023-07-13T01:52:20;4.78;;;2.20;;
21729;SDS011;11027;51.030;13.812;2023-07-13T01:54:46;3.75;;;1.85;;
21729;SDS011;11027;51.030;13.812;2023-07-13T01:57:11;2.47;;;2.05;;
21729;SDS011;11027;51.030;13.812;2023-07-13T01:59:36;3.95;;;2.33;;
21729;SDS011;11027;51.030;13.812;2023-07-13T02:02:01;4.60;;;2.08;;
21729;SDS011;11027;51.030;13.812;2023-07-13T02:04:27;2.83;;;1.90;;
21729;SDS011;11027;51.030;13.812;2023-07-13T02:06:52;3.80;;;2.08;;
21729;SDS011;11027;51.030;13.812;2023-07-13T02:09:17;4.90;;;2.08;;
21729;SDS011;11027;51.030;13.812;2023-07-13T02:11:42;4.90;;;2.00;;
21729;SDS011;11027;51.030;13.812;2023-07-13T02:14:08;5.95;;;2.30;;
21729;SDS011;11027;51.030;13.812;2023-07-13T02:16:33;5.80;;;2.50;;
21729;SDS011;11027;51.030;13.812;2023-07-13T02:18:58;4.60;;;2.58;;
21729;SDS011;11027;51.030;13.812;2023-07-13T02:21:25;2.63;;;2.17;;
21729;SDS011;11027;51.030;13.812;2023-07-13T02:23:50;11.52;;;2.40;;
21729;SDS011;11027;51.030;13.812;2023-07-13T02:26:17;2.45;;;2.10;;
21729;SDS011;11027;51.030;13.812;2023-07-13T02:28:42;6.05;;;2.30;;
21729;SDS011;11027;51.030;13.812;2023-07-13T02:31:08;6.03;;;2.00;;
21729;SDS011;11027;51.030;13.812;2023-07-13T02:33:36;6.30;;;2.20;;
21729;SDS011;11027;51.030;13.812;2023-07-13T02:36:01;4.10;;;2.00;;
21729;SDS011;11027;51.030;13.812;2023-07-13T02:38:27;7.68;;;2.53;;
21729;SDS011;11027;51.030;13.812;2023-07-13T02:40:52;5.90;;;2.30;;
21729;SDS011;11027;51.030;13.812;2023-07-13T02:43:18;4.97;;;2.40;;
21729;SDS011;11027;51.030;13.812;2023-07-13T02:45:43;6.47;;;2.38;;
21729;SDS011;11027;51.030;13.812;2023-07-13T02:48:09;4.43;;;2.38;;
21729;SDS011;11027;51.030;13.812;2023-07-13T02:50:34;4.10;;;2.53;;
21729;SDS011;11027;51.030;13.812;2023-07-13T02:53:00;6.97;;;2.60;;
21729;SDS011;11027;51.030;13.812;2023-07-13T02:55:25;4.63;;;2.50;;
21729;SDS011;11027;51.030;13.812;2023-07-13T02:57:50;3.40;;;2.28;;
21729;SDS011;11027;51.030;13.812;2023-07-13T03:00:15;4.38;;;2.42;;
21729;SDS011;11027;51.030;13.812;2023-07-13T03:02:41;4.22;;;2.20;;
21729;SDS011;11027;51.030;13.812;2023-07-13T03:05:06;4.97;;;2.53;;
21729;SDS011;11027;51.030;13.812;2023-07-13T03:07:32;5.88;;;2.42;;
21729;SDS011;11027;51.030;13.812;2023-07-13T03:09:58;6.80;;;2.50;;
21729;SDS011;11027;51.030;13.812;2023-07-13T03:12:24;5.40;;;2.33;;
21729;SDS011;11027;51.030;13.812;2023-07-13T03:14:50;4.65;;;2.50;;
21729;SDS011;11027;51.030;13.812;2023-07-13T03:17:15;4.63;;;2.30;;
21729;SDS011;11027;51.030;13.812;2023-07-13T03:19:41;6.28;;;2.58;;
21729;SDS011;11027;51.030;13.812;2023-07-13T03:22:06;4.03;;;2.63;;
21729;SDS011;11027;51.030;13.812;2023-07-13T03:24:32;4.40;;;2.30;;
21729;SDS011;11027;51.030;13.812;2023-07-13T03:26:58;4.88;;;2.35;;
21729;SDS011;11027;51.030;13.812;2023-07-13T03:29:25;3.90;;;2.22;;
21729;SDS011;11027;51.030;13.812;2023-07-13T03:31:50;5.13;;;2.30;;
21729;SDS011;11027;51.030;13.812;2023-07-13T03:34:15;4.57;;;1.95;;
21729;SDS011;11027;51.030;13.812;2023-07-13T03:36:41;4.32;;;2.25;;
21729;SDS011;11027;51.030;13.812;2023-07-13T03:39:06;7.07;;;2.45;;
21729;SDS011;11027;51.030;13.812;2023-07-13T03:41:33;5.97;;;2.70;;
21729;SDS011;11027;51.030;13.812;2023-07-13T03:43:58;3.75;;;2.38;;
21729;SDS011;11027;51.030;13.812;2023-07-13T03:46:24;3.47;;;2.40;;
21729;SDS011;11027;51.030;13.812;2023-07-13T03:48:49;4.93;;;2.42;;
21729;SDS011;11027;51.030;13.812;2023-07-13T03:51:15;4.13;;;2.47;;
21729;SDS011;11027;51.030;13.812;2023-07-13T03:53:42;4.13;;;2.15;;
21729;SDS011;11027;51.030;13.812;2023-07-13T03:56:08;3.80;;;2.50;;
21729;SDS011;11027;51.030;13.812;2023-07-13T03:58:36;5.45;;;2.35;;
21729;SDS011;11027;51.030;13.812;2023-07-13T04:01:06;5.22;;;2.70;;
21729;SDS011;11027;51.030;13.812;2023-07-13T04:03:33;4.38;;;2.40;;
21729;SDS011;11027;51.030;13.812;2023-07-13T04:05:59;4.60;;;2.50;;
21729;SDS011;11027;51.030;13.812;2023-07-13T04:08:29;5.28;;;2.33;;
21729;SDS011;11027;51.030;13.812;2023-07-13T04:10:56;3.63;;;2.15;;
21729;SDS011;11027;51.030;13.812;2023-07-13T04:13:22;6.80;;;2.38;;
21729;SDS011;11027;51.030;13.812;2023-07-13T04:15:48;8.43;;;2.00;;
21729;SDS011;11027;51.030;13.812;2023-07-13T04:18:13;7.45;;;2.25;;
21729;SDS011;11027;51.030;13.812;2023-07-13T04:20:39;5.43;;;2.08;;
21729;SDS011;11027;51.030;13.812;2023-07-13T04:23:04;6.75;;;2.40;;
21729;SDS011;11027;51.030;13.812;2023-07-13T04:25:29;6.47;;;2.25;;
21729;SDS011;11027;51.030;13.812;2023-07-13T04:27:54;4.75;;;2.25;;
21729;SDS011;11027;51.030;13.812;2023-07-13T04:30:20;7.93;;;2.67;;
21729;SDS011;11027;51.030;13.812;2023-07-13T04:32:45;2.53;;;2.15;;
21729;SDS011;11027;51.030;13.812;2023-07-13T04:35:11;5.68;;;2.22;;
21729;SDS011;11027;51.030;13.812;2023-07-13T04:37:36;5.50;;;2.40;;
21729;SDS011;11027;51.030;13.812;2023-07-13T04:40:02;3.90;;;2.30;;
21729;SDS011;11027;51.030;13.812;2023-07-13T04:42:28;3.88;;;2.40;;
21729;SDS011;11027;51.030;13.812;2023-07-13T04:44:53;4.95;;;2.50;;
21729;SDS011;11027;51.030;13.812;2023-07-13T04:47:19;6.80;;;2.33;;
21729;SDS011;11027;51.030;13.812;2023-07-13T04:49:44;5.50;;;2.60;;
21729;SDS011;11027;51.030;13.812;2023-07-13T04:52:10;7.47;;;2.38;;
21729;SDS011;11027;51.030;13.812;2023-07-13T04:54:36;3.42;;;2.50;;
21729;SDS011;11027;51.030;13.812;2023-07-13T04:57:02;5.70;;;3.30;;
21729;SDS011;11027;51.030;13.812;2023-07-13T04:59:29;4.85;;;2.60;;
21729;SDS011;11027;51.030;13.812;2023-07-13T05:01:54;5.53;;;2.50;;
21729;SDS011;11027;51.030;13.812;2023-07-13T05:04:20;5.95;;;2.60;;
21729;SDS011;11027;51.030;13.812;2023-07-13T05:06:45;4.93;;;2.38;;
21729;SDS011;11027;51.030;13.812;2023-07-13T05:09:10;4.82;;;2.50;;
21729;SDS011;11027;51.030;13.812;2023-07-13T05:11:37;3.92;;;2.30;;
21729;SDS011;11027;51.030;13.812;2023-07-13T05:14:02;6.22;;;2.25;;
21729;SDS011;11027;51.030;13.812;2023-07-13T05:16:28;7.68;;;2.33;;
21729;SDS011;11027;51.030;13.812;2023-07-13T05:18:53;4.22;;;2.22;;
21729;SDS011;11027;51.030;13.812;2023-07-13T05:21:18;3.97;;;2.10;;
21729;SDS011;11027;51.030;13.812;2023-07-13T05:23:44;5.55;;;2.20;;
21729;SDS011;11027;51.030;13.812;2023-07-13T05:26:10;4.60;;;2.22;;
21729;SDS011;11027;51.030;13.812;2023-07-13T05:28:35;4.88;;;2.17;;
21729;SDS011;11027;51.030;13.812;2023-07-13T05:31:01;7.57;;;2.30;;
21729;SDS011;11027;51.030;13.812;2023-07-13T05:33:27;4.13;;;2.33;;
21729;SDS011;11027;51.030;13.812;2023-07-13T05:35:53;6.70;;;2.20;;
21729;SDS011;11027;51.030;13.812;2023-07-13T05:38:18;6.40;;;2.85;;
21729;SDS011;11027;51.030;13.812;2023-07-13T05:40:44;4.43;;;2.60;;
21729;SDS011;11027;51.030;13.812;2023-07-13T05:43:10;7.50;;;2.70;;
21729;SDS011;11027;51.030;13.812;2023-07-13T05:45:36;4.00;;;2.67;;
21729;SDS011;11027;51.030;13.812;2023-07-13T05:48:01;4.30;;;2.47;;
21729;SDS011;11027;51.030;13.812;2023-07-13T05:50:26;4.47;;;2.80;;
21729;SDS011;11027;51.030;13.812;2023-07-13T05:52:51;6.22;;;2.65;;
21729;SDS011;11027;51.030;13.812;2023-07-13T05:55:17;4.68;;;3.10;;
21729;SDS011;11027;51.030;13.812;2023-07-13T05:57:42;4.97;;;2.92;;
21729;SDS011;11027;51.030;13.812;2023-07-13T06:00:08;7.03;;;2.88;;
21729;SDS011;11027;51.030;13.812;2023-07-13T06:02:33;6.70;;;2.60;;
21729;SDS011;11027;51.030;13.812;2023-07-13T06:04:59;5.40;;;2.80;;
21729;SDS011;11027;51.030;13.812;2023-07-13T06:07:24;3.67;;;2.60;;
21729;SDS011;11027;51.030;13.812;2023-07-13T06:09:49;5.97;;;3.50;;
21729;SDS011;11027;51.030;13.812;2023-07-13T06:12:14;10.52;;;2.90;;
21729;SDS011;11027;51.030;13.812;2023-07-13T06:14:40;10.75;;;3.33;;
21729;SDS011;11027;51.030;13.812;2023-07-13T06:17:05;8.38;;;2.65;;
21729;SDS011;11027;51.030;13.812;2023-07-13T06:19:31;8.23;;;3.40;;
21729;SDS011;11027;51.030;13.812;2023-07-13T06:21:56;3.92;;;2.80;;
21729;SDS011;11027;51.030;13.812;2023-07-13T06:24:23;4.35;;;2.92;;
21729;SDS011;11027;51.030;13.812;2023-07-13T06:26:48;4.82;;;2.92;;
21729;SDS011;11027;51.030;13.812;2023-07-13T06:29:13;6.72;;;3.13;;
21729;SDS011;11027;51.030;13.812;2023-07-13T06:31:39;9.20;;;3.33;;
21729;SDS011;11027;51.030;13.812;2023-07-13T06:34:04;13.07;;;3.50;;
21729;SDS011;11027;51.030;13.812;2023-07-13T06:36:29;8.05;;;3.30;;
21729;SDS011;11027;51.030;13.812;2023-07-13T06:38:54;7.13;;;3.13;;
21729;SDS011;11027;51.030;13.812;2023-07-13T06:41:20;3.30;;;2.90;;
21729;SDS011;11027;51.030;13.812;2023-07-13T06:43:47;6.90;;;2.90;;
21729;SDS011;11027;51.030;13.812;2023-07-13T06:46:12;7.43;;;2.78;;
21729;SDS011;11027;51.030;13.812;2023-07-13T06:48:37;8.85;;;3.17;;
21729;SDS011;11027;51.030;13.812;2023-07-13T06:51:03;6.43;;;2.85;;
21729;SDS011;11027;51.030;13.812;2023-07-13T06:53:28;6.53;;;2.55;;
21729;SDS011;11027;51.030;13.812;2023-07-13T06:55:53;3.78;;;2.50;;
21729;SDS011;11027;51.030;13.812;2023-07-13T06:58:19;5.32;;;3.13;;
21729;SDS011;11027;51.030;13.812;2023-07-13T07:00:44;6.55;;;2.45;;
21729;SDS011;11027;51.030;13.812;2023-07-13T07:03:10;9.38;;;2.42;;
21729;SDS011;11027;51.030;13.812;2023-07-13T07:05:35;5.57;;;2.20;;
21729;SDS011;11027;51.030;13.812;2023-07-13T07:08:01;8.65;;;2.55;;
21729;SDS011;11027;51.030;13.812;2023-07-13T07:10:26;4.55;;;1.92;;
21729;SDS011;11027;51.030;13.812;2023-07-13T07:12:54;7.45;;;1.95;;
21729;SDS011;11027;51.030;13.812;2023-07-13T07:15:19;4.35;;;2.08;;
21729;SDS011;11027;51.030;13.812;2023-07-13T07:17:44;5.00;;;1.77;;
21729;SDS011;11027;51.030;13.812;2023-07-13T07:20:10;9.60;;;2.00;;
21729;SDS011;11027;51.030;13.812;2023-07-13T07:22:38;6.38;;;2.20;;
21729;SDS011;11027;51.030;13.812;2023-07-13T07:25:03;8.45;;;1.60;;
21729;SDS011;11027;51.030;13.812;2023-07-13T07:27:29;9.95;;;2.08;;
21729;SDS011;11027;51.030;13.812;2023-07-13T07:29:54;4.38;;;1.98;;
21729;SDS011;11027;51.030;13.812;2023-07-13T07:32:19;4.03;;;1.88;;
21729;SDS011;11027;51.030;13.812;2023-07-13T07:34:45;6.00;;;1.60;;
21729;SDS011;11027;51.030;13.812;2023-07-13T07:37:11;4.40;;;1.95;;
21729;SDS011;11027;51.030;13.812;2023-07-13T07:39:38;6.30;;;1.67;;
21729;SDS011;11027;51.030;13.812;2023-07-13T07:42:03;6.38;;;1.60;;
21729;SDS011;11027;51.030;13.812;2023-07-13T07:44:30;3.38;;;1.58;;
21729;SDS011;11027;51.030;13.812;2023-07-13T07:46:56;5.00;;;1.70;;
21729;SDS011;11027;51.030;13.812;2023-07-13T07:49:21;5.55;;;1.80;;
21729;SDS011;11027;51.030;13.812;2023-07-13T07:51:47;4.70;;;1.92;;
21729;SDS011;11027;51.030;13.812;2023-07-13T07:54:12;5.78;;;1.92;;
21729;SDS011;11027;51.030;13.812;2023-07-13T07:56:38;4.93;;;1.70;;
21729;SDS011;11027;51.030;13.812;2023-07-13T07:59:03;7.45;;;4.05;;
21729;SDS011;11027;51.030;13.812;2023-07-13T08:01:28;9.25;;;5.22;;
21729;SDS011;11027;51.030;13.812;2023-07-13T08:03:54;4.78;;;2.45;;
21729;SDS011;11027;51.030;13.812;2023-07-13T08:06:19;4.35;;;1.20;;
21729;SDS011;11027;51.030;13.812;2023-07-13T08:08:45;7.07;;;1.25;;
21729;SDS011;11027;51.030;13.812;2023-07-13T08:11:10;3.92;;;1.33;;
21729;SDS011;11027;51.030;13.812;2023-07-13T08:13:36;5.18;;;1.42;;
21729;SDS011;11027;51.030;13.812;2023-07-13T08:16:04;3.63;;;1.30;;
21729;SDS011;11027;51.030;13.812;2023-07-13T08:18:30;4.53;;;1.35;;
21729;SDS011;11027;51.030;13.812;2023-07-13T08:20:55;2.95;;;1.55;;
21729;SDS011;11027;51.030;13.812;2023-07-13T08:23:23;6.57;;;1.88;;
21729;SDS011;11027;51.030;13.812;2023-07-13T08:25:52;2.92;;;1.00;;
21729;SDS011;11027;51.030;13.812;2023-07-13T08:28:20;3.47;;;1.15;;
21729;SDS011;11027;51.030;13.812;2023-07-13T08:30:46;3.67;;;1.50;;
21729;SDS011;11027;51.030;13.812;2023-07-13T08:33:15;3.30;;;1.13;;
21729;SDS011;11027;51.030;13.812;2023-07-13T08:35:41;2.45;;;0.90;;
21729;SDS011;11027;51.030;13.812;2023-07-13T08:38:06;6.10;;;1.50;;
21729;SDS011;11027;51.030;13.812;2023-07-13T08:40:34;3.78;;;1.08;;
21729;SDS011;11027;51.030;13.812;2023-07-13T08:42:59;9.38;;;2.08;;
21729;SDS011;11027;51.030;13.812;2023-07-13T08:45:44;5.72;;;1.17;;
21729;SDS011;11027;51.030;13.812;2023-07-13T08:48:19;5.07;;;1.27;;
21729;SDS011;11027;51.030;13.812;2023-07-13T08:53:44;3.22;;;0.98;;
21729;SDS011;11027;51.030;13.812;2023-07-13T08:56:16;4.72;;;1.52;;
21729;SDS011;11027;51.030;13.812;2023-07-13T09:01:28;3.63;;;1.13;;
21729;SDS011;11027;51.030;13.812;2023-07-13T09:04:05;1.80;;;1.00;;
21729;SDS011;11027;51.030;13.812;2023-07-13T09:06:37;3.90;;;1.20;;
21729;SDS011;11027;51.030;13.812;2023-07-13T09:09:18;7.32;;;1.63;;
21729;SDS011;11027;51.030;13.812;2023-07-13T09:12:50;3.22;;;1.15;;
21729;SDS011;11027;51.030;13.812;2023-07-13T09:15:14;5.53;;;1.20;;
21729;SDS011;11027;51.030;13.812;2023-07-13T09:17:49;2.50;;;1.10;;
21729;SDS011;11027;51.030;13.812;2023-07-13T09:20:21;4.07;;;1.45;;
21729;SDS011;11027;51.030;13.812;2023-07-13T09:22:52;3.00;;;1.10;;
21729;SDS011;11027;51.030;13.812;2023-07-13T09:25:29;4.88;;;1.40;;
21729;SDS011;11027;51.030;13.812;2023-07-13T09:28:10;4.28;;;1.42;;
21729;SDS011;11027;51.030;13.812;2023-07-13T09:31:07;6.65;;;1.13;;
21729;SDS011;11027;51.030;13.812;2023-07-13T09:33:46;4.20;;;1.23;;
21729;SDS011;11027;51.030;13.812;2023-07-13T09:36:20;4.15;;;1.63;;
21729;SDS011;11027;51.030;13.812;2023-07-13T09:38:59;3.00;;;1.53;;
21729;SDS011;11027;51.030;13.812;2023-07-13T09:41:41;6.03;;;1.40;;
21729;SDS011;11027;51.030;13.812;2023-07-13T09:44:35;4.45;;;1.20;;
21729;SDS011;11027;51.030;13.812;2023-07-13T09:47:02;5.10;;;1.20;;
21729;SDS011;11027;51.030;13.812;2023-07-13T09:49:35;4.13;;;1.30;;
21729;SDS011;11027;51.030;13.812;2023-07-13T09:52:05;6.20;;;1.85;;
21729;SDS011;11027;51.030;13.812;2023-07-13T09:54:36;5.10;;;1.25;;
21729;SDS011;11027;51.030;13.812;2023-07-13T09:57:03;3.05;;;1.17;;
21729;SDS011;11027;51.030;13.812;2023-07-13T09:59:49;6.28;;;1.40;;
21729;SDS011;11027;51.030;13.812;2023-07-13T10:05:14;2.35;;;0.95;;
21729;SDS011;11027;51.030;13.812;2023-07-13T10:07:44;3.45;;;1.30;;
21729;SDS011;11027;51.030;13.812;2023-07-13T10:10:27;5.07;;;1.63;;
21729;SDS011;11027;51.030;13.812;2023-07-13T10:12:53;5.35;;;1.40;;
21729;SDS011;11027;51.030;13.812;2023-07-13T10:15:19;3.90;;;1.20;;
21729;SDS011;11027;51.030;13.812;2023-07-13T10:17:46;3.55;;;1.02;;
21729;SDS011;11027;51.030;13.812;2023-07-13T10:20:12;3.13;;;1.40;;
21729;SDS011;11027;51.030;13.812;2023-07-13T10:25:29;6.85;;;1.10;;
21729;SDS011;11027;51.030;13.812;2023-07-13T10:28:03;2.80;;;1.02;;
21729;SDS011;11027;51.030;13.812;2023-07-13T10:30:50;6.05;;;1.00;;
21729;SDS011;11027;51.030;13.812;2023-07-13T10:33:17;3.50;;;1.25;;
21729;SDS011;11027;51.030;13.812;2023-07-13T10:35:43;2.88;;;1.10;;
21729;SDS011;11027;51.030;13.812;2023-07-13T10:38:11;4.75;;;1.80;;
21729;SDS011;11027;51.030;13.812;2023-07-13T10:40:40;6.88;;;1.98;;
21729;SDS011;11027;51.030;13.812;2023-07-13T10:43:20;4.32;;;0.88;;
21729;SDS011;11027;51.030;13.812;2023-07-13T10:45:53;7.57;;;1.10;;
21729;SDS011;11027;51.030;13.812;2023-07-13T10:48:20;7.47;;;1.40;;
21729;SDS011;11027;51.030;13.812;2023-07-13T10:50:49;4.82;;;1.17;;
21729;SDS011;11027;51.030;13.812;2023-07-13T10:53:34;2.80;;;1.08;;
21729;SDS011;11027;51.030;13.812;2023-07-13T10:56:04;5.10;;;1.20;;
21729;SDS011;11027;51.030;13.812;2023-07-13T10:58:37;3.80;;;1.20;;
21729;SDS011;11027;51.030;13.812;2023-07-13T11:01:10;5.38;;;1.05;;
21729;SDS011;11027;51.030;13.812;2023-07-13T11:03:38;2.80;;;1.10;;
21729;SDS011;11027;51.030;13.812;2023-07-13T11:06:12;6.47;;;1.35;;
21729;SDS011;11027;51.030;13.812;2023-07-13T11:11:31;3.95;;;1.10;;
21729;SDS011;11027;51.030;13.812;2023-07-13T11:14:03;4.15;;;1.20;;
21729;SDS011;11027;51.030;13.812;2023-07-13T11:16:49;2.90;;;0.98;;
21729;SDS011;11027;51.030;13.812;2023-07-13T11:27:51;6.80;;;1.10;;
21729;SDS011;11027;51.030;13.812;2023-07-13T11:35:33;8.40;;;1.15;;
21729;SDS011;11027;51.030;13.812;2023-07-13T11:38:01;4.88;;;0.95;;
21729;SDS011;11027;51.030;13.812;2023-07-13T11:40:27;2.22;;;0.70;;
21729;SDS011;11027;51.030;13.812;2023-07-13T11:42:59;2.88;;;0.80;;
21729;SDS011;11027;51.030;13.812;2023-07-13T11:45:25;6.35;;;1.30;;
21729;SDS011;11027;51.030;13.812;2023-07-13T11:47:50;4.38;;;1.33;;
21729;SDS011;11027;51.030;13.812;2023-07-13T11:50:17;8.60;;;0.93;;
21729;SDS011;11027;51.030;13.812;2023-07-13T11:52:44;2.42;;;1.08;;
21729;SDS011;11027;51.030;13.812;2023-07-13T11:55:14;7.25;;;1.15;;
21729;SDS011;11027;51.030;13.812;2023-07-13T11:57:51;3.65;;;1.33;;
21729;SDS011;11027;51.030;13.812;2023-07-13T12:00:22;3.90;;;1.75;;
21729;SDS011;11027;51.030;13.812;2023-07-13T12:02:52;4.72;;;1.25;;
21729;SDS011;11027;51.030;13.812;2023-07-13T12:05:20;3.88;;;1.10;;
21729;SDS011;11027;51.030;13.812;2023-07-13T12:07:46;5.15;;;1.00;;
21729;SDS011;11027;51.030;13.812;2023-07-13T12:10:28;7.53;;;1.10;;
21729;SDS011;11027;51.030;13.812;2023-07-13T12:13:02;6.47;;;1.33;;
21729;SDS011;11027;51.030;13.812;2023-07-13T12:15:39;2.90;;;1.05;;
21729;SDS011;11027;51.030;13.812;2023-07-13T12:18:12;4.43;;;1.35;;
21729;SDS011;11027;51.030;13.812;2023-07-13T12:20:39;6.57;;;1.30;;
21729;SDS011;11027;51.030;13.812;2023-07-13T12:23:05;2.55;;;1.17;;
21729;SDS011;11027;51.030;13.812;2023-07-13T12:25:45;4.40;;;0.90;;
21729;SDS011;11027;51.030;13.812;2023-07-13T12:28:36;3.30;;;1.20;;
21729;SDS011;11027;51.030;13.812;2023-07-13T12:31:32;3.97;;;0.98;;
21729;SDS011;11027;51.030;13.812;2023-07-13T12:33:59;3.40;;;1.10;;
21729;SDS011;11027;51.030;13.812;2023-07-13T12:36:31;2.45;;;1.20;;
21729;SDS011;11027;51.030;13.812;2023-07-13T12:39:00;2.90;;;1.20;;
21729;SDS011;11027;51.030;13.812;2023-07-13T12:41:35;2.05;;;0.90;;
21729;SDS011;11027;51.030;13.812;2023-07-13T12:44:00;3.60;;;1.10;;
21729;SDS011;11027;51.030;13.812;2023-07-13T12:46:26;5.88;;;1.10;;
21729;SDS011;11027;51.030;13.812;2023-07-13T12:48:53;5.63;;;1.33;;
21729;SDS011;11027;51.030;13.812;2023-07-13T12:51:24;2.28;;;1.05;;
21729;SDS011;11027;51.030;13.812;2023-07-13T12:53:55;7.90;;;1.20;;
21729;SDS011;11027;51.030;13.812;2023-07-13T12:56:25;6.13;;;1.10;;
21729;SDS011;11027;51.030;13.812;2023-07-13T12:58:56;3.28;;;1.10;;
21729;SDS011;11027;51.030;13.812;2023-07-13T13:01:25;2.47;;;0.98;;
21729;SDS011;11027;51.030;13.812;2023-07-13T13:03:53;4.40;;;1.05;;
21729;SDS011;11027;51.030;13.812;2023-07-13T13:08:58;4.82;;;1.10;;
21729;SDS011;11027;51.030;13.812;2023-07-13T13:11:25;5.13;;;1.10;;
21729;SDS011;11027;51.030;13.812;2023-07-13T13:13:51;8.40;;;1.65;;
21729;SDS011;11027;51.030;13.812;2023-07-13T13:18:47;5.22;;;1.20;;
21729;SDS011;11027;51.030;13.812;2023-07-13T13:21:15;4.93;;;0.95;;
21729;SDS011;11027;51.030;13.812;2023-07-13T13:23:41;2.83;;;1.05;;
21729;SDS011;11027;51.030;13.812;2023-07-13T13:26:10;2.72;;;1.20;;
21729;SDS011;11027;51.030;13.812;2023-07-13T13:28:36;6.78;;;1.27;;
21729;SDS011;11027;51.030;13.812;2023-07-13T13:31:01;3.78;;;1.17;;
21729;SDS011;11027;51.030;13.812;2023-07-13T13:33:27;3.38;;;1.10;;
21729;SDS011;11027;51.030;13.812;2023-07-13T13:35:52;1.98;;;0.80;;
21729;SDS011;11027;51.030;13.812;2023-07-13T13:38:23;5.25;;;1.48;;
21729;SDS011;11027;51.030;13.812;2023-07-13T13:40:50;8.15;;;1.02;;
21729;SDS011;11027;51.030;13.812;2023-07-13T13:43:25;3.30;;;1.20;;
21729;SDS011;11027;51.030;13.812;2023-07-13T13:45:52;3.20;;;0.73;;
21729;SDS011;11027;51.030;13.812;2023-07-13T13:48:21;2.25;;;0.70;;
21729;SDS011;11027;51.030;13.812;2023-07-13T13:51:11;3.42;;;0.73;;
21729;SDS011;11027;51.030;13.812;2023-07-13T13:53:39;5.53;;;1.00;;
21729;SDS011;11027;51.030;13.812;2023-07-13T13:56:04;4.22;;;1.00;;
21729;SDS011;11027;51.030;13.812;2023-07-13T13:58:30;1.65;;;0.80;;
21729;SDS011;11027;51.030;13.812;2023-07-13T14:00:55;5.03;;;0.90;;
21729;SDS011;11027;51.030;13.812;2023-07-13T14:03:21;2.28;;;0.90;;
21729;SDS011;11027;51.030;13.812;2023-07-13T14:05:47;4.75;;;0.95;;
21729;SDS011;11027;51.030;13.812;2023-07-13T14:08:18;4.47;;;0.80;;
21729;SDS011;11027;51.030;13.812;2023-07-13T14:10:44;5.88;;;0.90;;
21729;SDS011;11027;51.030;13.812;2023-07-13T14:13:16;3.30;;;0.82;;
21729;SDS011;11027;51.030;13.812;2023-07-13T14:15:44;2.50;;;0.70;;
21729;SDS011;11027;51.030;13.812;2023-07-13T14:18:10;3.97;;;0.80;;
21729;SDS011;11027;51.030;13.812;2023-07-13T14:20:36;5.28;;;0.73;;
21729;SDS011;11027;51.030;13.812;2023-07-13T14:23:02;4.30;;;0.95;;
21729;SDS011;11027;51.030;13.812;2023-07-13T14:25:27;3.43;;;0.83;;
21729;SDS011;11027;51.030;13.812;2023-07-13T14:27:57;5.60;;;1.23;;
21729;SDS011;11027;51.030;13.812;2023-07-13T14:30:32;4.50;;;1.05;;
21729;SDS011;11027;51.030;13.812;2023-07-13T14:32:58;2.42;;;0.90;;
21729;SDS011;11027;51.030;13.812;2023-07-13T14:35:23;3.03;;;1.10;;
21729;SDS011;11027;51.030;13.812;2023-07-13T14:37:48;5.45;;;0.90;;
21729;SDS011;11027;51.030;13.812;2023-07-13T14:40:14;6.82;;;1.05;;
21729;SDS011;11027;51.030;13.812;2023-07-13T14:42:42;3.88;;;0.90;;
21729;SDS011;11027;51.030;13.812;2023-07-13T14:45:17;4.63;;;0.95;;
21729;SDS011;11027;51.030;13.812;2023-07-13T14:47:43;1.17;;;0.82;;
21729;SDS011;11027;51.030;13.812;2023-07-13T14:50:17;7.10;;;1.20;;
21729;SDS011;11027;51.030;13.812;2023-07-13T14:52:45;3.85;;;1.00;;
21729;SDS011;11027;51.030;13.812;2023-07-13T14:55:13;8.98;;;1.02;;
21729;SDS011;11027;51.030;13.812;2023-07-13T14:57:40;3.53;;;1.00;;
21729;SDS011;11027;51.030;13.812;2023-07-13T15:00:12;4.18;;;0.93;;
21729;SDS011;11027;51.030;13.812;2023-07-13T15:02:40;4.50;;;1.00;;
21729;SDS011;11027;51.030;13.812;2023-07-13T15:05:14;4.30;;;1.10;;
21729;SDS011;11027;51.030;13.812;2023-07-13T15:07:41;2.45;;;0.80;;
21729;SDS011;11027;51.030;13.812;2023-07-13T15:10:29;2.42;;;0.80;;
21729;SDS011;11027;51.030;13.812;2023-07-13T15:13:01;1.42;;;0.60;;